createdAt,value
2023-10-20T00:00:54.834Z,101116.41
2023-10-20T00:01:58.740Z,101124.03
2023-10-20T00:03:02.633Z,101123.59
2023-10-20T00:04:06.718Z,101123.28
2023-10-20T00:05:10.911Z,101129.25
2023-10-20T00:06:14.734Z,101116.03
2023-10-20T00:07:18.590Z,101128.88
2023-10-20T00:08:22.322Z,101124.47
2023-10-20T00:09:27.747Z,101124.06
2023-10-20T00:10:32.338Z,101141.63
2023-10-20T00:11:36.348Z,101128.44
2023-10-20T00:12:40.357Z,101136.81
2023-10-20T00:13:44.115Z,101135.28
2023-10-20T00:14:47.901Z,101132.50
2023-10-20T00:15:51.723Z,101098.50
2023-10-20T00:16:55.604Z,101135.72
2023-10-20T00:17:59.463Z,101120.56
2023-10-20T00:19:03.231Z,101140.16
2023-10-20T00:20:07.601Z,101133.75
2023-10-20T00:21:11.455Z,101140.13
2023-10-20T00:22:15.120Z,101139.34
2023-10-20T00:23:18.934Z,101142.91
2023-10-20T00:24:22.685Z,101138.13
2023-10-20T00:25:28.192Z,101141.72
2023-10-20T00:26:32.070Z,101148.56
2023-10-20T00:27:35.927Z,101148.16
2023-10-20T00:28:39.687Z,101152.22
2023-10-20T00:29:43.388Z,101154.63
2023-10-20T00:30:54.683Z,101157.00
2023-10-20T00:31:58.413Z,101130.63
2023-10-20T00:33:02.295Z,101164.22
2023-10-20T00:34:06.328Z,101158.66
2023-10-20T00:35:11.005Z,101162.63
2023-10-20T00:36:14.946Z,101171.00
2023-10-20T00:37:18.678Z,101157.47
2023-10-20T00:38:22.475Z,101171.03
2023-10-20T00:39:26.335Z,101140.19
2023-10-20T00:40:31.765Z,101169.00
2023-10-20T00:41:35.610Z,101165.03
2023-10-20T00:42:39.997Z,101143.47
2023-10-20T00:43:43.711Z,101167.09
2023-10-20T00:44:47.516Z,101172.22
2023-10-20T00:45:51.457Z,101169.81
2023-10-20T00:46:55.178Z,101172.59
2023-10-20T00:47:59.318Z,101166.22
2023-10-20T00:49:04.718Z,101181.03
2023-10-20T00:50:10.230Z,101171.06
2023-10-20T00:51:14.206Z,101179.50
2023-10-20T00:52:18.293Z,101175.09
2023-10-20T00:53:22.412Z,101185.16
2023-10-20T00:54:26.172Z,101180.78
2023-10-20T00:55:32.193Z,101158.44
2023-10-20T00:56:36.085Z,101186.78
2023-10-20T00:57:40.457Z,101187.16
2023-10-20T00:58:44.339Z,101184.38
2023-10-20T00:59:48.076Z,101179.59
2023-10-20T01:00:52.070Z,101181.59
2023-10-20T01:01:55.873Z,101176.00
2023-10-20T01:02:59.865Z,101190.38
2023-10-20T01:04:04.154Z,101190.75
2023-10-20T01:05:08.505Z,101188.28
2023-10-20T01:06:12.503Z,101184.28
2023-10-20T01:07:16.733Z,101199.41
2023-10-20T01:08:20.694Z,101191.13
2023-10-20T01:09:28.071Z,101191.13
2023-10-20T01:10:33.588Z,101197.53
2023-10-20T01:11:37.460Z,101204.31
2023-10-20T01:12:41.401Z,101195.16
2023-10-20T01:13:45.142Z,101204.34
2023-10-20T01:14:48.963Z,101202.78
2023-10-20T01:15:53.357Z,101175.59
2023-10-20T01:16:57.134Z,101211.16
2023-10-20T01:18:00.912Z,101202.84
2023-10-20T01:19:04.824Z,101200.84
2023-10-20T01:20:09.749Z,101208.88
2023-10-20T01:21:13.585Z,101208.47
2023-10-20T01:22:17.341Z,101204.06
2023-10-20T01:23:21.236Z,101197.34
2023-10-20T01:24:26.796Z,101198.50
2023-10-20T01:25:30.690Z,101197.28
2023-10-20T01:26:34.494Z,101186.81
2023-10-20T01:27:38.290Z,101199.66
2023-10-20T01:28:42.035Z,101211.28
2023-10-20T01:29:45.828Z,101210.47
2023-10-20T01:30:50.040Z,101209.66
2023-10-20T01:31:54.021Z,101212.06
2023-10-20T01:32:57.928Z,101212.88
2023-10-20T01:34:01.820Z,101215.28
2023-10-20T01:35:06.278Z,101207.66
2023-10-20T01:36:10.027Z,101209.66
2023-10-20T01:37:13.932Z,101214.06
2023-10-20T01:38:17.755Z,101214.44
2023-10-20T01:39:21.619Z,101212.09
2023-10-20T01:40:27.067Z,101218.88
2023-10-20T01:41:30.816Z,101203.69
2023-10-20T01:42:34.530Z,101219.28
2023-10-20T01:43:38.305Z,101198.81
2023-10-20T01:44:42.090Z,101216.47
2023-10-20T01:45:45.886Z,101216.09
2023-10-20T01:46:50.041Z,101220.91
2023-10-20T01:47:56.162Z,101216.53
2023-10-20T01:48:59.999Z,101219.34
2023-10-20T01:50:03.835Z,101212.97
2023-10-20T01:51:07.605Z,101206.16
2023-10-20T01:52:11.587Z,101214.56
2023-10-20T01:53:15.370Z,101213.75
2023-10-20T01:54:19.227Z,101208.16
2023-10-20T01:55:22.978Z,101211.38
2023-10-20T01:56:28.499Z,101219.00
2023-10-20T01:57:32.209Z,101219.38
2023-10-20T01:58:36.027Z,101221.38
2023-10-20T01:59:40.015Z,101223.00
2023-10-20T02:00:43.852Z,101219.00
2023-10-20T02:01:47.646Z,101195.03
2023-10-20T02:02:51.679Z,101221.38
2023-10-20T02:03:55.718Z,101222.19
2023-10-20T02:04:59.619Z,101221.78
2023-10-20T02:06:03.395Z,101226.97
2023-10-20T02:07:07.115Z,101220.56
2023-10-20T02:08:10.942Z,101218.59
2023-10-20T02:09:14.772Z,101214.19
2023-10-20T02:10:18.681Z,101219.78
2023-10-20T02:11:22.639Z,101202.59
2023-10-20T02:12:28.971Z,101225.38
2023-10-20T02:13:32.675Z,101228.56
2023-10-20T02:14:36.670Z,101218.59
2023-10-20T02:15:40.436Z,101234.16
2023-10-20T02:16:44.447Z,101239.78
2023-10-20T02:17:48.154Z,101241.38
2023-10-20T02:18:51.944Z,101240.59
2023-10-20T02:19:55.588Z,101234.97
2023-10-20T02:20:59.913Z,101237.78
2023-10-20T02:22:03.701Z,101233.78
2023-10-20T02:23:07.543Z,101231.38
2023-10-20T02:24:11.398Z,101227.41
2023-10-20T02:25:15.420Z,101235.00
2023-10-20T02:26:19.447Z,101233.34
2023-10-20T02:27:23.248Z,101220.22
2023-10-20T02:28:28.824Z,101222.59
2023-10-20T02:29:32.596Z,101221.78
2023-10-20T02:30:36.525Z,101222.56
2023-10-20T02:31:40.227Z,101217.38
2023-10-20T02:32:44.337Z,101196.63
2023-10-20T02:33:48.410Z,101208.56
2023-10-20T02:34:52.197Z,101215.41
2023-10-20T02:35:57.507Z,101221.34
2023-10-20T02:37:01.247Z,101220.19
2023-10-20T02:38:05.214Z,101227.38
2023-10-20T02:39:08.997Z,101222.59
2023-10-20T02:40:13.375Z,101204.59
2023-10-20T02:41:17.232Z,101234.56
2023-10-20T02:42:21.047Z,101225.38
2023-10-20T02:43:25.514Z,101219.41
2023-10-20T02:44:31.047Z,101222.59
2023-10-20T02:45:34.837Z,101223.78
2023-10-20T02:46:38.552Z,101225.00
2023-10-20T02:47:42.402Z,101223.41
2023-10-20T02:48:46.265Z,101229.38
2023-10-20T02:49:49.984Z,101218.59
2023-10-20T02:50:53.772Z,101216.22
2023-10-20T02:51:57.523Z,101205.44
2023-10-20T02:53:01.440Z,101201.81
2023-10-20T02:54:05.427Z,101210.59
2023-10-20T02:55:10.001Z,101217.78
2023-10-20T02:56:15.050Z,101210.16
2023-10-20T02:57:18.762Z,101220.19
2023-10-20T02:58:22.519Z,101208.97
2023-10-20T02:59:26.448Z,101217.75
2023-10-20T03:00:31.863Z,101205.75
2023-10-20T03:01:35.636Z,101214.94
2023-10-20T03:02:39.478Z,101211.34
2023-10-20T03:03:43.852Z,101183.00
2023-10-20T03:04:47.884Z,101204.97
2023-10-20T03:05:51.625Z,101210.94
2023-10-20T03:06:55.357Z,101206.56
2023-10-20T03:08:00.031Z,101204.53
2023-10-20T03:09:03.816Z,101204.94
2023-10-20T03:10:08.568Z,101197.69
2023-10-20T03:11:12.416Z,101198.13
2023-10-20T03:12:16.219Z,101182.16
2023-10-20T03:13:19.904Z,101198.91
2023-10-20T03:14:23.749Z,101180.56
2023-10-20T03:15:27.638Z,101196.91
2023-10-20T03:16:33.141Z,101181.69
2023-10-20T03:17:36.974Z,101187.69
2023-10-20T03:18:41.998Z,101196.47
2023-10-20T03:19:46.431Z,101179.63
2023-10-20T03:20:50.184Z,101189.25
2023-10-20T03:21:53.936Z,101172.44
2023-10-20T03:22:57.843Z,101176.09
2023-10-20T03:24:01.548Z,101188.91
2023-10-20T03:25:05.659Z,101187.28
2023-10-20T03:26:13.347Z,101186.09
2023-10-20T03:27:17.308Z,101170.91
2023-10-20T03:28:21.165Z,101178.94
2023-10-20T03:29:24.996Z,101179.72
2023-10-20T03:30:28.807Z,101178.53
2023-10-20T03:31:34.250Z,101168.94
2023-10-20T03:32:38.095Z,101171.72
2023-10-20T03:33:42.060Z,101160.59
2023-10-20T03:34:45.736Z,101169.78
2023-10-20T03:35:49.450Z,101127.03
2023-10-20T03:36:53.477Z,101159.34
2023-10-20T03:37:57.217Z,101154.53
2023-10-20T03:39:00.937Z,101148.53
2023-10-20T03:40:04.917Z,101155.34
2023-10-20T03:41:10.277Z,101145.34
2023-10-20T03:42:14.150Z,101144.13
2023-10-20T03:43:17.992Z,101142.09
2023-10-20T03:44:21.945Z,101140.88
2023-10-20T03:45:25.787Z,101136.81
2023-10-20T03:46:29.644Z,101137.97
2023-10-20T03:47:35.048Z,101141.19
2023-10-20T03:48:38.860Z,101122.47
2023-10-20T03:49:42.601Z,101135.69
2023-10-20T03:50:46.682Z,101133.72
2023-10-20T03:51:50.636Z,101132.91
2023-10-20T03:52:54.388Z,101105.75
2023-10-20T03:53:58.317Z,101120.13
2023-10-20T03:55:02.024Z,101123.72
2023-10-20T03:56:06.102Z,101128.88
2023-10-20T03:57:09.856Z,101120.03
2023-10-20T03:58:13.629Z,101124.00
2023-10-20T03:59:17.491Z,101118.88
2023-10-20T04:00:21.447Z,101121.66
2023-10-20T04:01:25.258Z,101115.63
2023-10-20T04:02:29.106Z,101119.16
2023-10-20T04:03:34.709Z,101121.53
2023-10-20T04:04:38.601Z,101107.09
2023-10-20T04:05:42.414Z,101108.25
2023-10-20T04:06:46.409Z,101101.00
2023-10-20T04:07:50.208Z,101085.03
2023-10-20T04:08:53.947Z,101098.47
2023-10-20T04:09:58.038Z,101090.03
2023-10-20T04:11:02.337Z,101089.56
2023-10-20T04:12:06.348Z,101092.41
2023-10-20T04:13:10.146Z,101091.53
2023-10-20T04:14:14.027Z,101081.91
2023-10-20T04:15:17.937Z,101083.50
2023-10-20T04:16:21.719Z,101077.16
2023-10-20T04:17:25.648Z,101061.66
2023-10-20T04:18:29.546Z,101078.72
2023-10-20T04:19:36.269Z,101066.31
2023-10-20T04:20:40.436Z,101069.53
2023-10-20T04:21:45.426Z,101069.13
2023-10-20T04:22:50.216Z,101062.63
2023-10-20T04:23:53.991Z,101065.41
2023-10-20T04:24:57.722Z,101061.78
2023-10-20T04:26:01.492Z,101062.09
2023-10-20T04:27:06.164Z,101052.91
2023-10-20T04:28:11.021Z,101052.88
2023-10-20T04:29:15.164Z,101050.88
2023-10-20T04:30:19.882Z,101042.09
2023-10-20T04:31:23.661Z,101048.88
2023-10-20T04:32:27.547Z,101044.47
2023-10-20T04:33:31.402Z,101048.44
2023-10-20T04:34:36.902Z,101043.28
2023-10-20T04:35:40.680Z,101037.59
2023-10-20T04:36:44.536Z,101035.94
2023-10-20T04:37:48.267Z,101039.66
2023-10-20T04:38:52.353Z,101029.69
2023-10-20T04:39:56.622Z,101034.47
2023-10-20T04:41:00.355Z,101041.19
2023-10-20T04:42:04.129Z,101034.34
2023-10-20T04:43:07.990Z,101018.31
2023-10-20T04:44:11.783Z,101027.06
2023-10-20T04:45:15.572Z,101018.19
2023-10-20T04:46:19.363Z,101017.72
2023-10-20T04:47:23.134Z,101014.09
2023-10-20T04:48:26.925Z,101010.91
2023-10-20T04:49:30.819Z,101015.28
2023-10-20T04:50:36.295Z,101010.06
2023-10-20T04:51:40.112Z,100998.19
2023-10-20T04:52:43.864Z,100977.84
2023-10-20T04:53:47.829Z,100979.47
2023-10-20T04:54:51.622Z,101012.31
2023-10-20T04:55:55.352Z,101009.19
2023-10-20T04:56:59.076Z,100994.72
2023-10-20T04:58:02.860Z,100990.31
2023-10-20T04:59:07.077Z,101005.94
2023-10-20T05:00:11.790Z,100998.81
2023-10-20T05:01:15.555Z,100996.22
2023-10-20T05:02:19.421Z,100993.66
2023-10-20T05:03:23.332Z,100997.56
2023-10-20T05:04:27.148Z,100986.75
2023-10-20T05:05:31.039Z,100990.25
2023-10-20T05:06:36.420Z,100987.84
2023-10-20T05:07:42.843Z,100980.59
2023-10-20T05:08:46.630Z,100984.59
2023-10-20T05:09:50.401Z,100981.41
2023-10-20T05:10:54.697Z,100980.16
2023-10-20T05:11:58.419Z,100979.28
2023-10-20T05:13:02.063Z,100978.81
2023-10-20T05:14:05.881Z,100969.75
2023-10-20T05:15:10.765Z,100974.47
2023-10-20T05:16:14.705Z,100970.03
2023-10-20T05:17:18.495Z,100966.00
2023-10-20T05:18:22.235Z,100960.38
2023-10-20T05:19:26.040Z,100968.00
2023-10-20T05:20:29.829Z,100961.19
2023-10-20T05:21:35.286Z,100962.41
2023-10-20T05:22:38.966Z,100960.44
2023-10-20T05:23:44.528Z,100959.38
2023-10-20T05:24:48.219Z,100958.56
2023-10-20T05:25:52.211Z,100955.75
2023-10-20T05:26:55.968Z,100951.75
2023-10-20T05:27:59.731Z,100947.59
2023-10-20T05:29:03.477Z,100943.16
2023-10-20T05:30:10.284Z,100945.56
2023-10-20T05:31:14.336Z,100937.13
2023-10-20T05:32:18.142Z,100939.97
2023-10-20T05:33:22.095Z,100944.34
2023-10-20T05:34:25.804Z,100934.69
2023-10-20T05:35:31.196Z,100920.03
2023-10-20T05:36:36.578Z,100928.63
2023-10-20T05:37:40.291Z,100924.56
2023-10-20T05:38:46.582Z,100918.59
2023-10-20T05:39:50.399Z,100920.66
2023-10-20T05:40:59.322Z,100918.91
2023-10-20T05:42:03.729Z,100916.53
2023-10-20T05:43:07.676Z,100918.59
2023-10-20T05:44:11.555Z,100912.09
2023-10-20T05:45:15.616Z,100902.81
2023-10-20T05:46:19.525Z,100902.72
2023-10-20T05:47:23.385Z,100896.97
2023-10-20T05:48:27.259Z,100899.28
2023-10-20T05:49:31.634Z,100894.78
2023-10-20T05:50:37.043Z,100888.78
2023-10-20T05:51:42.476Z,100887.38
2023-10-20T05:52:46.194Z,100888.59
2023-10-20T05:53:49.909Z,100890.81
2023-10-20T05:54:53.634Z,100891.41
2023-10-20T05:55:57.377Z,100889.09
2023-10-20T05:57:01.062Z,100891.19
2023-10-20T05:58:04.907Z,100881.53
2023-10-20T05:59:08.699Z,100882.28
2023-10-20T06:00:13.307Z,100876.75
2023-10-20T06:01:17.060Z,100874.59
2023-10-20T06:02:20.823Z,100876.72
2023-10-20T06:03:24.616Z,100864.38
2023-10-20T06:04:28.462Z,100870.41
2023-10-20T06:05:32.274Z,100877.13
2023-10-20T06:06:36.088Z,100869.88
2023-10-20T06:07:41.449Z,100868.53
2023-10-20T06:08:45.293Z,100872.06
2023-10-20T06:09:49.144Z,100861.97
2023-10-20T06:10:52.863Z,100838.38
2023-10-20T06:11:56.628Z,100857.72
2023-10-20T06:13:00.365Z,100848.19
2023-10-20T06:14:04.092Z,100849.72
2023-10-20T06:15:09.094Z,100860.88
2023-10-20T06:16:13.513Z,100858.03
2023-10-20T06:17:17.519Z,100855.13
2023-10-20T06:18:35.071Z,100865.91
2023-10-20T06:19:40.183Z,100830.94
2023-10-20T06:20:44.005Z,100841.66
2023-10-20T06:21:47.793Z,100853.00
2023-10-20T06:22:53.140Z,100846.59
2023-10-20T06:23:56.975Z,100858.03
2023-10-20T06:25:00.768Z,100849.97
2023-10-20T06:26:04.441Z,100844.19
2023-10-20T06:27:08.142Z,100850.63
2023-10-20T06:28:11.953Z,100838.16
2023-10-20T06:29:15.711Z,100838.22
2023-10-20T06:30:19.449Z,100845.94
2023-10-20T06:31:23.202Z,100835.06
2023-10-20T06:32:27.092Z,100836.56
2023-10-20T06:33:32.414Z,100844.13
2023-10-20T06:34:36.127Z,100830.09
2023-10-20T06:35:39.885Z,100828.22
2023-10-20T06:36:43.687Z,100822.88
2023-10-20T06:37:47.379Z,100832.53
2023-10-20T06:38:52.793Z,100821.44
2023-10-20T06:39:57.271Z,100826.94
2023-10-20T06:41:01.038Z,100823.25
2023-10-20T06:42:04.873Z,100822.78
2023-10-20T06:43:08.642Z,100817.91
2023-10-20T06:44:12.449Z,100815.66
2023-10-20T06:45:16.426Z,100806.38
2023-10-20T06:46:20.278Z,100817.53
2023-10-20T06:47:24.116Z,100801.25
2023-10-20T06:48:27.951Z,100811.84
2023-10-20T06:49:34.089Z,100783.19
2023-10-20T06:50:38.036Z,100806.25
2023-10-20T06:51:41.809Z,100808.22
2023-10-20T06:52:45.551Z,100798.41
2023-10-20T06:53:49.356Z,100797.22
2023-10-20T06:55:22.507Z,100797.66
2023-10-20T06:56:21.149Z,100797.66
2023-10-20T06:57:28.637Z,100791.16
2023-10-20T06:58:32.446Z,100785.09
2023-10-20T06:59:36.191Z,100781.81
2023-10-20T07:00:40.018Z,100781.75
2023-10-20T07:01:45.150Z,100772.72
2023-10-20T07:02:49.569Z,100782.31
2023-10-20T07:03:53.498Z,100782.38
2023-10-20T07:04:57.256Z,100782.81
2023-10-20T07:06:01.752Z,100772.88
2023-10-20T07:07:05.644Z,100779.56
2023-10-20T07:08:09.659Z,100774.84
2023-10-20T07:09:13.745Z,100770.00
2023-10-20T07:10:19.256Z,100770.44
2023-10-20T07:11:23.045Z,100768.69
2023-10-20T07:12:26.820Z,100762.69
2023-10-20T07:13:30.708Z,100759.47
2023-10-20T07:14:34.671Z,100751.38
2023-10-20T07:15:38.674Z,100759.53
2023-10-20T07:16:42.552Z,100751.75
2023-10-20T07:17:46.395Z,100750.16
2023-10-20T07:18:50.190Z,100745.13
2023-10-20T07:19:53.884Z,100749.53
2023-10-20T07:22:23.201Z,100715.56
2023-10-20T07:23:29.579Z,100713.28
2023-10-20T07:24:33.864Z,100743.97
2023-10-20T07:25:39.409Z,100742.31
2023-10-20T07:26:43.244Z,100737.13
2023-10-20T07:27:47.057Z,100736.03
2023-10-20T07:28:51.018Z,100729.50
2023-10-20T07:29:54.984Z,100730.09
2023-10-20T07:30:58.731Z,100738.22
2023-10-20T07:32:02.427Z,100734.03
2023-10-20T07:33:06.871Z,100727.03
2023-10-20T07:34:10.850Z,100720.31
2023-10-20T07:35:15.021Z,100727.38
2023-10-20T07:36:19.179Z,100699.44
2023-10-20T07:37:22.949Z,100721.88
2023-10-20T07:38:26.689Z,100718.91
2023-10-20T07:39:30.479Z,100712.94
2023-10-20T07:40:34.502Z,100708.53
2023-10-20T07:41:39.950Z,100720.88
2023-10-20T07:42:44.409Z,100704.50
2023-10-20T07:43:49.962Z,100705.22
2023-10-20T07:44:53.798Z,100716.38
2023-10-20T07:45:57.594Z,100715.09
2023-10-20T07:47:01.451Z,100719.88
2023-10-20T07:48:05.694Z,100712.28
2023-10-20T07:49:09.462Z,100716.03
2023-10-20T07:50:13.255Z,100713.22
2023-10-20T07:51:17.043Z,100696.41
2023-10-20T07:52:21.000Z,100717.19
2023-10-20T07:53:24.736Z,100717.91
2023-10-20T07:54:28.410Z,100720.66
2023-10-20T07:55:32.221Z,100719.44
2023-10-20T07:56:36.000Z,100719.28
2023-10-20T07:57:41.416Z,100716.38
2023-10-20T07:58:45.161Z,100708.72
2023-10-20T07:59:49.196Z,100714.81
2023-10-20T08:00:53.049Z,100711.47
2023-10-20T08:01:57.037Z,100708.66
2023-10-20T08:03:00.972Z,100707.50
2023-10-20T08:04:05.053Z,100699.50
2023-10-20T08:05:09.803Z,100706.66
2023-10-20T08:06:14.183Z,100702.00
2023-10-20T08:07:18.403Z,100703.91
2023-10-20T08:08:22.299Z,100702.56
2023-10-20T08:09:26.136Z,100698.59
2023-10-20T08:10:29.874Z,100700.31
2023-10-20T08:11:33.752Z,100698.28
2023-10-20T08:12:37.516Z,100692.84
2023-10-20T08:13:42.852Z,100693.69
2023-10-20T08:14:46.652Z,100691.97
2023-10-20T08:15:50.544Z,100695.88
2023-10-20T08:16:54.700Z,100691.34
2023-10-20T08:17:59.833Z,100695.28
2023-10-20T08:19:03.707Z,100702.56
2023-10-20T08:20:08.941Z,100690.25
2023-10-20T08:21:12.623Z,100696.06
2023-10-20T08:22:16.384Z,100700.09
2023-10-20T08:23:20.153Z,100697.97
2023-10-20T08:24:23.952Z,100702.81
2023-10-20T08:25:27.711Z,100691.41
2023-10-20T08:26:31.446Z,100691.84
2023-10-20T08:27:35.273Z,100690.97
2023-10-20T08:28:39.031Z,100692.09
2023-10-20T08:29:46.755Z,100698.97
2023-10-20T08:30:50.560Z,100693.19
2023-10-20T08:31:54.309Z,100668.91
2023-10-20T08:32:58.179Z,100688.78
2023-10-20T08:34:01.925Z,100689.22
2023-10-20T08:35:09.408Z,100694.63
2023-10-20T08:36:15.625Z,100697.38
2023-10-20T08:37:19.479Z,100701.31
2023-10-20T08:38:23.598Z,100706.16
2023-10-20T08:39:27.371Z,100699.03
2023-10-20T08:40:41.902Z,100702.28
2023-10-20T08:41:54.585Z,100703.88
2023-10-20T08:43:03.658Z,100704.66
2023-10-20T08:44:08.061Z,100701.63
2023-10-20T08:45:15.512Z,100706.66
2023-10-20T08:46:20.311Z,100707.44
2023-10-20T08:47:27.139Z,100678.13
2023-10-20T08:48:31.084Z,100711.03
2023-10-20T08:49:35.505Z,100707.44
2023-10-20T08:50:40.949Z,100697.06
2023-10-20T08:51:45.521Z,100696.63
2023-10-20T08:52:49.891Z,100695.13
2023-10-20T08:53:53.603Z,100703.91
2023-10-20T08:54:57.625Z,100696.06
2023-10-20T08:56:01.416Z,100700.53
2023-10-20T08:57:05.205Z,100706.88
2023-10-20T08:58:09.045Z,100702.03
2023-10-20T08:59:12.809Z,100708.09
2023-10-20T09:00:18.667Z,100716.03
2023-10-20T09:01:22.388Z,100684.34
2023-10-20T09:02:26.259Z,100715.34
2023-10-20T09:03:39.399Z,100726.09
2023-10-20T09:04:43.385Z,100714.06
2023-10-20T09:05:47.157Z,100712.91
2023-10-20T09:06:51.207Z,100717.31
2023-10-20T09:07:57.034Z,100712.91
2023-10-20T09:09:00.882Z,100713.69
2023-10-20T09:10:04.791Z,100705.69
2023-10-20T09:11:12.511Z,100708.09
2023-10-20T09:12:16.606Z,100714.13
2023-10-20T09:13:20.338Z,100714.59
2023-10-20T09:14:26.918Z,100683.69
2023-10-20T09:15:32.365Z,100717.06
2023-10-20T09:16:36.762Z,100714.38
2023-10-20T09:17:40.509Z,100718.09
2023-10-20T09:18:45.676Z,100720.91
2023-10-20T09:19:49.480Z,100718.97
2023-10-20T09:20:53.169Z,100707.81
2023-10-20T09:21:58.939Z,100716.66
2023-10-20T09:23:10.251Z,100715.50
2023-10-20T09:24:17.128Z,100719.88
2023-10-20T09:25:20.854Z,100714.72
2023-10-20T09:26:25.169Z,100720.75
2023-10-20T09:27:29.002Z,100721.59
2023-10-20T09:28:32.972Z,100723.47
2023-10-20T09:29:38.508Z,100719.03
2023-10-20T09:30:44.283Z,100721.84
2023-10-20T09:31:48.148Z,100724.28
2023-10-20T09:32:52.079Z,100722.34
2023-10-20T09:33:56.027Z,100727.16
2023-10-20T09:35:00.099Z,100732.78
2023-10-20T09:36:04.351Z,100736.44
2023-10-20T09:37:10.512Z,100741.66
2023-10-20T09:38:18.211Z,100742.19
2023-10-20T09:39:26.367Z,100741.03
2023-10-20T09:40:30.095Z,100720.44
2023-10-20T09:41:35.112Z,100758.22
2023-10-20T09:43:07.787Z,100760.94
2023-10-20T09:44:23.639Z,100772.34
2023-10-20T09:45:33.625Z,100740.28
2023-10-20T09:46:52.022Z,100775.19
2023-10-20T09:48:02.555Z,100771.75
2023-10-20T09:49:15.930Z,100749.03
2023-10-20T09:50:20.675Z,100768.84
2023-10-20T09:51:25.096Z,100778.47
2023-10-20T09:52:30.343Z,100769.72
2023-10-20T09:53:34.407Z,100779.63
2023-10-20T09:54:38.909Z,100755.53
2023-10-20T09:55:43.332Z,100784.94
2023-10-20T09:56:48.267Z,100763.94
2023-10-20T09:57:52.554Z,100788.97
2023-10-20T09:58:59.667Z,100792.19
2023-10-20T10:00:06.767Z,100791.41
2023-10-20T10:01:14.603Z,100791.41
2023-10-20T10:02:28.919Z,100783.41
2023-10-20T10:03:33.815Z,100789.25
2023-10-20T10:04:41.407Z,100791.25
2023-10-20T10:05:48.721Z,100797.00
2023-10-20T10:06:53.524Z,100794.13
2023-10-20T10:08:08.910Z,100764.94
2023-10-20T10:09:12.652Z,100761.47
2023-10-20T10:10:21.876Z,100782.47
2023-10-20T10:11:30.806Z,100793.66
2023-10-20T10:12:34.623Z,100790.88
2023-10-20T10:13:42.659Z,100787.72
2023-10-20T10:14:57.364Z,100766.25
2023-10-20T10:16:12.308Z,100797.59
2023-10-20T10:17:22.066Z,100791.31
2023-10-20T10:18:33.134Z,100793.75
2023-10-20T10:19:36.843Z,100789.38
2023-10-20T10:20:45.679Z,100787.94
2023-10-20T10:21:52.486Z,100805.50
2023-10-20T10:23:01.962Z,100809.56
2023-10-20T10:24:15.779Z,100804.59
2023-10-20T10:25:36.130Z,100803.63
2023-10-20T10:26:47.834Z,100809.25
2023-10-20T10:27:51.679Z,100805.66
2023-10-20T10:28:55.361Z,100811.69
2023-10-20T10:30:00.469Z,100815.84
2023-10-20T10:31:04.338Z,100801.41
2023-10-20T10:32:12.680Z,100809.84
2023-10-20T10:33:22.160Z,100811.47
2023-10-20T10:34:27.679Z,100808.25
2023-10-20T10:35:31.576Z,100804.59
2023-10-20T10:36:45.282Z,100804.19
2023-10-20T10:37:49.036Z,100802.22
2023-10-20T10:38:52.807Z,100805.44
2023-10-20T10:40:03.318Z,100807.88
2023-10-20T10:41:07.085Z,100812.69
2023-10-20T10:42:10.850Z,100812.69
2023-10-20T10:43:16.791Z,100819.16
2023-10-20T10:44:22.922Z,100818.44
2023-10-20T10:45:27.839Z,100819.19
2023-10-20T10:46:37.748Z,100825.16
2023-10-20T10:47:44.614Z,100822.03
2023-10-20T10:48:48.780Z,100824.00
2023-10-20T10:49:54.140Z,100826.47
2023-10-20T10:50:57.887Z,100822.09
2023-10-20T10:52:01.927Z,100824.91
2023-10-20T10:53:05.947Z,100832.16
2023-10-20T10:54:09.670Z,100831.75
2023-10-20T10:55:13.586Z,100830.53
2023-10-20T10:56:17.304Z,100831.00
2023-10-20T10:57:21.534Z,100839.03
2023-10-20T10:58:25.255Z,100837.03
2023-10-20T10:59:29.486Z,100835.03
2023-10-20T11:00:33.677Z,100835.41
2023-10-20T11:01:39.081Z,100835.41
2023-10-20T11:02:43.093Z,100833.44
2023-10-20T11:03:47.295Z,100833.44
2023-10-20T11:04:51.528Z,100828.22
2023-10-20T11:05:57.173Z,100833.41
2023-10-20T11:07:01.151Z,100830.59
2023-10-20T11:08:06.621Z,100825.78
2023-10-20T11:09:11.892Z,100801.31
2023-10-20T11:10:15.899Z,100836.22
2023-10-20T11:11:19.707Z,100842.56
2023-10-20T11:12:24.384Z,100839.81
2023-10-20T11:13:29.980Z,100843.03
2023-10-20T11:14:33.880Z,100843.41
2023-10-20T11:15:38.452Z,100845.78
2023-10-20T11:16:44.168Z,100851.81
2023-10-20T11:17:49.939Z,100854.22
2023-10-20T11:18:53.839Z,100849.44
2023-10-20T11:19:58.927Z,100850.22
2023-10-20T11:21:04.458Z,100854.72
2023-10-20T11:22:16.365Z,100814.13
2023-10-20T11:23:30.542Z,100838.00
2023-10-20T11:24:37.491Z,100864.69
2023-10-20T11:25:42.013Z,100869.50
2023-10-20T11:26:55.512Z,100873.94
2023-10-20T11:27:59.366Z,100869.94
2023-10-20T11:29:04.084Z,100878.38
2023-10-20T11:30:10.090Z,100881.56
2023-10-20T11:31:14.123Z,100877.59
2023-10-20T11:32:18.002Z,100881.25
2023-10-20T11:33:21.831Z,100856.59
2023-10-20T11:34:25.877Z,100873.69
2023-10-20T11:35:29.964Z,100876.88
2023-10-20T11:36:35.414Z,100891.28
2023-10-20T11:37:39.149Z,100890.06
2023-10-20T11:38:42.924Z,100888.81
2023-10-20T11:39:46.745Z,100893.63
2023-10-20T11:40:51.234Z,100893.22
2023-10-20T11:41:55.710Z,100891.59
2023-10-20T11:42:59.500Z,100892.78
2023-10-20T11:44:03.337Z,100884.78
2023-10-20T11:45:08.112Z,100888.44
2023-10-20T11:46:11.906Z,100889.25
2023-10-20T11:47:15.713Z,100889.25
2023-10-20T11:48:19.571Z,100887.66
2023-10-20T11:49:23.789Z,100863.75
2023-10-20T11:50:27.605Z,100884.44
2023-10-20T11:51:31.474Z,100894.84
2023-10-20T11:52:37.276Z,100889.25
2023-10-20T11:53:41.071Z,100892.88
2023-10-20T11:54:44.870Z,100894.09
2023-10-20T11:55:48.664Z,100899.69
2023-10-20T11:56:52.529Z,100902.50
2023-10-20T11:57:56.413Z,100900.91
2023-10-20T11:59:00.296Z,100897.31
2023-10-20T12:00:04.419Z,100896.19
2023-10-20T12:01:08.208Z,100899.38
2023-10-20T12:02:12.242Z,100898.91
2023-10-20T12:03:16.217Z,100905.31
2023-10-20T12:04:20.465Z,100890.97
2023-10-20T12:05:24.337Z,100904.97
2023-10-20T12:06:28.576Z,100899.78
2023-10-20T12:07:32.370Z,100863.53
2023-10-20T12:08:37.857Z,100889.34
2023-10-20T12:09:41.756Z,100896.19
2023-10-20T12:10:45.466Z,100885.78
2023-10-20T12:11:49.720Z,100896.19
2023-10-20T12:12:53.552Z,100901.41
2023-10-20T12:13:57.265Z,100908.63
2023-10-20T12:15:01.015Z,100900.22
2023-10-20T12:16:04.869Z,100902.22
2023-10-20T12:17:08.601Z,100905.03
2023-10-20T12:18:12.463Z,100905.44
2023-10-20T12:19:16.282Z,100903.84
2023-10-20T12:20:20.137Z,100910.28